sensor_id;sensor_type;location;lat;lon;timestamp;temperature;humidity
20590;DHT22;10453;50.810;12.540;2023-08-12T00:01:52;15.60;99.90
20590;DHT22;10453;50.810;12.540;2023-08-12T00:06:10;15.70;99.90
20590;DHT22;10453;50.810;12.540;2023-08-12T00:10:27;15.70;99.90
20590;DHT22;10453;50.810;12.540;2023-08-12T00:14:45;15.50;99.90
20590;DHT22;10453;50.810;12.540;2023-08-12T00:19:03;15.50;99.90
20590;DHT22;10453;50.810;12.540;2023-08-12T00:23:20;15.50;99.90
20590;DHT22;10453;50.810;12.540;2023-08-12T00:27:37;15.50;99.90
20590;DHT22;10453;50.810;12.540;2023-08-12T00:31:55;15.50;99.90
20590;DHT22;10453;50.810;12.540;2023-08-12T00:36:13;15.50;99.90
20590;DHT22;10453;50.810;12.540;2023-08-12T00:40:30;15.50;99.90
20590;DHT22;10453;50.810;12.540;2023-08-12T00:44:48;15.50;99.90
20590;DHT22;10453;50.810;12.540;2023-08-12T00:49:05;15.50;99.90
20590;DHT22;10453;50.810;12.540;2023-08-12T00:53:22;15.50;99.90
20590;DHT22;10453;50.810;12.540;2023-08-12T00:57:40;15.50;99.90
20590;DHT22;10453;50.810;12.540;2023-08-12T01:01:57;15.50;99.90
20590;DHT22;10453;50.810;12.540;2023-08-12T01:06:15;15.50;99.90
20590;DHT22;10453;50.810;12.540;2023-08-12T01:10:35;15.50;99.90
20590;DHT22;10453;50.810;12.540;2023-08-12T01:19:31;15.50;99.90
20590;DHT22;10453;50.810;12.540;2023-08-12T01:23:50;15.40;99.90
20590;DHT22;10453;50.810;12.540;2023-08-12T01:28:07;15.30;99.90
20590;DHT22;10453;50.810;12.540;2023-08-12T01:36:54;15.30;99.90
20590;DHT22;10453;50.810;12.540;2023-08-12T01:41:13;15.20;99.90
20590;DHT22;10453;50.810;12.540;2023-08-12T01:45:31;15.10;99.90
20590;DHT22;10453;50.810;12.540;2023-08-12T01:49:49;15.10;99.90
20590;DHT22;10453;50.810;12.540;2023-08-12T01:54:06;15.10;99.90
20590;DHT22;10453;50.810;12.540;2023-08-12T01:58:23;15.10;99.90
20590;DHT22;10453;50.810;12.540;2023-08-12T02:02:43;15.10;99.90
20590;DHT22;10453;50.810;12.540;2023-08-12T02:07:04;15.10;99.90
20590;DHT22;10453;50.810;12.540;2023-08-12T02:11:21;15.20;99.90
20590;DHT22;10453;50.810;12.540;2023-08-12T02:15:39;15.20;99.90
20590;DHT22;10453;50.810;12.540;2023-08-12T02:19:56;15.20;99.90
20590;DHT22;10453;50.810;12.540;2023-08-12T02:24:14;15.20;99.90
20590;DHT22;10453;50.810;12.540;2023-08-12T02:28:31;15.30;99.90
20590;DHT22;10453;50.810;12.540;2023-08-12T02:32:48;15.30;99.90
20590;DHT22;10453;50.810;12.540;2023-08-12T02:37:07;15.40;99.90
20590;DHT22;10453;50.810;12.540;2023-08-12T02:41:24;15.30;99.90
20590;DHT22;10453;50.810;12.540;2023-08-12T02:45:42;15.10;99.90
20590;DHT22;10453;50.810;12.540;2023-08-12T02:49:59;15.10;99.90
20590;DHT22;10453;50.810;12.540;2023-08-12T02:54:17;15.10;99.90
20590;DHT22;10453;50.810;12.540;2023-08-12T02:58:34;15.00;99.90
20590;DHT22;10453;50.810;12.540;2023-08-12T03:02:52;15.00;99.90
20590;DHT22;10453;50.810;12.540;2023-08-12T03:07:09;15.00;99.90
20590;DHT22;10453;50.810;12.540;2023-08-12T03:11:26;15.10;99.90
20590;DHT22;10453;50.810;12.540;2023-08-12T03:15:44;15.10;99.90
20590;DHT22;10453;50.810;12.540;2023-08-12T03:20:01;15.10;99.90
20590;DHT22;10453;50.810;12.540;2023-08-12T03:24:22;15.10;99.90
20590;DHT22;10453;50.810;12.540;2023-08-12T03:28:39;15.20;99.90
20590;DHT22;10453;50.810;12.540;2023-08-12T03:32:57;15.10;99.90
20590;DHT22;10453;50.810;12.540;2023-08-12T03:37:14;14.90;99.90
20590;DHT22;10453;50.810;12.540;2023-08-12T03:41:31;14.90;99.90
20590;DHT22;10453;50.810;12.540;2023-08-12T03:45:49;14.90;99.90
20590;DHT22;10453;50.810;12.540;2023-08-12T03:50:06;15.00;99.90
20590;DHT22;10453;50.810;12.540;2023-08-12T03:54:24;15.00;99.90
20590;DHT22;10453;50.810;12.540;2023-08-12T03:58:42;15.00;99.90
20590;DHT22;10453;50.810;12.540;2023-08-12T04:02:59;15.10;99.90
20590;DHT22;10453;50.810;12.540;2023-08-12T04:07:17;15.20;99.90
20590;DHT22;10453;50.810;12.540;2023-08-12T04:11:34;15.30;99.90
20590;DHT22;10453;50.810;12.540;2023-08-12T04:15:52;15.30;99.90
20590;DHT22;10453;50.810;12.540;2023-08-12T04:20:12;15.40;99.90
20590;DHT22;10453;50.810;12.540;2023-08-12T04:24:29;15.50;99.90
20590;DHT22;10453;50.810;12.540;2023-08-12T04:28:47;15.50;99.90
20590;DHT22;10453;50.810;12.540;2023-08-12T04:33:04;15.60;99.90
20590;DHT22;10453;50.810;12.540;2023-08-12T04:37:22;15.60;99.90
20590;DHT22;10453;50.810;12.540;2023-08-12T04:41:41;15.60;99.90
20590;DHT22;10453;50.810;12.540;2023-08-12T04:45:58;15.70;99.90
20590;DHT22;10453;50.810;12.540;2023-08-12T04:50:16;15.70;99.90
20590;DHT22;10453;50.810;12.540;2023-08-12T04:54:34;15.80;99.90
20590;DHT22;10453;50.810;12.540;2023-08-12T04:58:51;15.80;99.90
20590;DHT22;10453;50.810;12.540;2023-08-12T05:03:09;15.90;99.90
20590;DHT22;10453;50.810;12.540;2023-08-12T05:07:26;16.00;99.90
20590;DHT22;10453;50.810;12.540;2023-08-12T05:11:43;16.10;99.90
20590;DHT22;10453;50.810;12.540;2023-08-12T05:16:01;16.30;99.90
20590;DHT22;10453;50.810;12.540;2023-08-12T05:20:19;16.60;99.90
20590;DHT22;10453;50.810;12.540;2023-08-12T05:24:36;16.90;99.90
20590;DHT22;10453;50.810;12.540;2023-08-12T05:28:54;17.20;99.90
20590;DHT22;10453;50.810;12.540;2023-08-12T05:33:11;17.40;99.90
20590;DHT22;10453;50.810;12.540;2023-08-12T05:37:28;17.40;99.90
20590;DHT22;10453;50.810;12.540;2023-08-12T05:41:46;17.60;99.90
20590;DHT22;10453;50.810;12.540;2023-08-12T05:46:03;17.80;99.90
20590;DHT22;10453;50.810;12.540;2023-08-12T05:50:20;18.00;99.90
20590;DHT22;10453;50.810;12.540;2023-08-12T05:54:38;18.10;99.90
20590;DHT22;10453;50.810;12.540;2023-08-12T05:58:55;18.30;99.90
20590;DHT22;10453;50.810;12.540;2023-08-12T06:03:12;18.50;99.90
20590;DHT22;10453;50.810;12.540;2023-08-12T06:07:30;18.70;99.90
20590;DHT22;10453;50.810;12.540;2023-08-12T06:11:48;18.80;99.90
20590;DHT22;10453;50.810;12.540;2023-08-12T06:16:06;18.90;99.90
20590;DHT22;10453;50.810;12.540;2023-08-12T06:20:23;19.10;99.90
20590;DHT22;10453;50.810;12.540;2023-08-12T06:24:43;19.20;99.90
20590;DHT22;10453;50.810;12.540;2023-08-12T06:29:00;19.40;99.90
20590;DHT22;10453;50.810;12.540;2023-08-12T06:33:22;19.40;99.90
20590;DHT22;10453;50.810;12.540;2023-08-12T06:37:39;19.60;99.90
20590;DHT22;10453;50.810;12.540;2023-08-12T06:41:57;19.70;99.90
20590;DHT22;10453;50.810;12.540;2023-08-12T06:46:16;19.80;99.90
20590;DHT22;10453;50.810;12.540;2023-08-12T06:50:33;20.00;99.90
20590;DHT22;10453;50.810;12.540;2023-08-12T06:54:51;20.20;99.90
20590;DHT22;10453;50.810;12.540;2023-08-12T06:59:08;20.50;99.90
20590;DHT22;10453;50.810;12.540;2023-08-12T07:03:26;20.90;99.90
20590;DHT22;10453;50.810;12.540;2023-08-12T07:07:44;22.00;99.90
20590;DHT22;10453;50.810;12.540;2023-08-12T07:12:01;22.50;99.90
20590;DHT22;10453;50.810;12.540;2023-08-12T07:16:21;22.60;99.90
20590;DHT22;10453;50.810;12.540;2023-08-12T07:20:39;23.00;99.90
20590;DHT22;10453;50.810;12.540;2023-08-12T07:24:56;23.40;99.90
20590;DHT22;10453;50.810;12.540;2023-08-12T07:29:17;23.70;99.90
20590;DHT22;10453;50.810;12.540;2023-08-12T07:33:34;24.20;99.90
20590;DHT22;10453;50.810;12.540;2023-08-12T07:37:52;24.50;99.90
20590;DHT22;10453;50.810;12.540;2023-08-12T07:42:09;24.70;99.90
20590;DHT22;10453;50.810;12.540;2023-08-12T07:46:28;25.10;99.90
20590;DHT22;10453;50.810;12.540;2023-08-12T07:50:47;26.00;99.90
20590;DHT22;10453;50.810;12.540;2023-08-12T07:55:07;26.20;99.90
20590;DHT22;10453;50.810;12.540;2023-08-12T07:59:24;26.50;99.90
20590;DHT22;10453;50.810;12.540;2023-08-12T08:03:42;26.40;99.90
20590;DHT22;10453;50.810;12.540;2023-08-12T08:08:00;26.10;99.90
20590;DHT22;10453;50.810;12.540;2023-08-12T08:12:17;25.90;99.90
20590;DHT22;10453;50.810;12.540;2023-08-12T08:16:35;26.00;99.90
20590;DHT22;10453;50.810;12.540;2023-08-12T08:20:52;26.00;99.90
20590;DHT22;10453;50.810;12.540;2023-08-12T08:25:10;25.70;99.90
20590;DHT22;10453;50.810;12.540;2023-08-12T08:29:27;25.90;99.90
20590;DHT22;10453;50.810;12.540;2023-08-12T08:33:45;26.00;99.90
20590;DHT22;10453;50.810;12.540;2023-08-12T08:38:02;26.00;99.90
20590;DHT22;10453;50.810;12.540;2023-08-12T08:42:20;26.30;99.90
20590;DHT22;10453;50.810;12.540;2023-08-12T08:46:37;26.70;99.90
20590;DHT22;10453;50.810;12.540;2023-08-12T08:50:55;26.70;99.90
20590;DHT22;10453;50.810;12.540;2023-08-12T08:55:13;27.00;99.90
20590;DHT22;10453;50.810;12.540;2023-08-12T08:59:31;27.50;99.90
20590;DHT22;10453;50.810;12.540;2023-08-12T09:03:51;27.40;99.90
20590;DHT22;10453;50.810;12.540;2023-08-12T09:08:11;27.40;99.90
20590;DHT22;10453;50.810;12.540;2023-08-12T09:12:30;27.40;99.90
20590;DHT22;10453;50.810;12.540;2023-08-12T09:16:48;27.20;99.90
20590;DHT22;10453;50.810;12.540;2023-08-12T09:21:06;26.90;99.90
20590;DHT22;10453;50.810;12.540;2023-08-12T09:25:23;26.90;99.90
20590;DHT22;10453;50.810;12.540;2023-08-12T09:29:40;26.80;99.90
20590;DHT22;10453;50.810;12.540;2023-08-12T09:33:59;27.00;99.90
20590;DHT22;10453;50.810;12.540;2023-08-12T09:38:21;27.20;99.90
20590;DHT22;10453;50.810;12.540;2023-08-12T09:42:44;27.30;99.90
20590;DHT22;10453;50.810;12.540;2023-08-12T09:47:01;27.40;99.90
20590;DHT22;10453;50.810;12.540;2023-08-12T09:51:19;27.50;99.90
20590;DHT22;10453;50.810;12.540;2023-08-12T09:55:38;27.30;99.90
20590;DHT22;10453;50.810;12.540;2023-08-12T09:59:57;27.40;99.90
20590;DHT22;10453;50.810;12.540;2023-08-12T10:04:17;27.80;99.90
20590;DHT22;10453;50.810;12.540;2023-08-12T10:08:35;27.90;99.90
20590;DHT22;10453;50.810;12.540;2023-08-12T10:12:54;28.10;99.90
20590;DHT22;10453;50.810;12.540;2023-08-12T10:17:12;28.20;99.90
20590;DHT22;10453;50.810;12.540;2023-08-12T10:21:30;28.20;99.90
20590;DHT22;10453;50.810;12.540;2023-08-12T10:25:47;28.20;99.90
20590;DHT22;10453;50.810;12.540;2023-08-12T10:30:06;28.20;99.90
20590;DHT22;10453;50.810;12.540;2023-08-12T10:34:27;28.70;99.90
20590;DHT22;10453;50.810;12.540;2023-08-12T10:38:44;28.70;99.90
20590;DHT22;10453;50.810;12.540;2023-08-12T10:43:02;29.10;96.50
20590;DHT22;10453;50.810;12.540;2023-08-12T10:47:19;29.30;94.30
20590;DHT22;10453;50.810;12.540;2023-08-12T10:51:47;29.10;90.50
20590;DHT22;10453;50.810;12.540;2023-08-12T10:56:05;28.90;91.70
20590;DHT22;10453;50.810;12.540;2023-08-12T11:00:26;29.50;90.30
20590;DHT22;10453;50.810;12.540;2023-08-12T11:04:55;28.40;88.80
20590;DHT22;10453;50.810;12.540;2023-08-12T11:09:12;27.50;91.30
20590;DHT22;10453;50.810;12.540;2023-08-12T11:13:30;27.30;95.90
20590;DHT22;10453;50.810;12.540;2023-08-12T11:17:47;27.40;93.50
20590;DHT22;10453;50.810;12.540;2023-08-12T11:22:05;27.40;94.50
20590;DHT22;10453;50.810;12.540;2023-08-12T11:26:25;27.50;96.50
20590;DHT22;10453;50.810;12.540;2023-08-12T11:30:43;28.10;99.90
20590;DHT22;10453;50.810;12.540;2023-08-12T11:35:00;28.20;92.50
20590;DHT22;10453;50.810;12.540;2023-08-12T11:39:18;27.80;92.00
20590;DHT22;10453;50.810;12.540;2023-08-12T11:43:36;27.80;99.90
20590;DHT22;10453;50.810;12.540;2023-08-12T11:47:53;27.70;93.30
20590;DHT22;10453;50.810;12.540;2023-08-12T11:52:12;28.10;93.00
20590;DHT22;10453;50.810;12.540;2023-08-12T11:56:31;29.00;99.90
20590;DHT22;10453;50.810;12.540;2023-08-12T12:00:49;30.70;94.50
20590;DHT22;10453;50.810;12.540;2023-08-12T12:05:10;29.90;84.70
20590;DHT22;10453;50.810;12.540;2023-08-12T12:09:28;30.60;83.60
20590;DHT22;10453;50.810;12.540;2023-08-12T12:13:46;30.90;86.40
20590;DHT22;10453;50.810;12.540;2023-08-12T12:18:08;31.80;83.60
20590;DHT22;10453;50.810;12.540;2023-08-12T12:22:30;32.50;75.40
20590;DHT22;10453;50.810;12.540;2023-08-12T12:26:49;32.20;91.20
20590;DHT22;10453;50.810;12.540;2023-08-12T12:31:07;31.70;76.20
20590;DHT22;10453;50.810;12.540;2023-08-12T12:35:25;31.90;83.60
20590;DHT22;10453;50.810;12.540;2023-08-12T12:39:42;31.50;72.70
20590;DHT22;10453;50.810;12.540;2023-08-12T12:44:00;33.10;78.70
20590;DHT22;10453;50.810;12.540;2023-08-12T12:48:18;34.10;70.20
20590;DHT22;10453;50.810;12.540;2023-08-12T12:52:36;34.10;66.70
20590;DHT22;10453;50.810;12.540;2023-08-12T12:56:53;34.30;66.90
20590;DHT22;10453;50.810;12.540;2023-08-12T13:01:11;34.30;66.20
20590;DHT22;10453;50.810;12.540;2023-08-12T13:05:28;34.80;64.20
20590;DHT22;10453;50.810;12.540;2023-08-12T13:09:45;35.10;69.20
20590;DHT22;10453;50.810;12.540;2023-08-12T13:14:03;34.80;57.30
20590;DHT22;10453;50.810;12.540;2023-08-12T13:18:21;33.50;59.20
20590;DHT22;10453;50.810;12.540;2023-08-12T13:22:39;31.90;67.10
20590;DHT22;10453;50.810;12.540;2023-08-12T13:26:56;31.90;66.20
20590;DHT22;10453;50.810;12.540;2023-08-12T13:31:16;31.80;65.40
20590;DHT22;10453;50.810;12.540;2023-08-12T13:35:33;30.60;64.30
20590;DHT22;10453;50.810;12.540;2023-08-12T13:39:51;30.60;70.20
20590;DHT22;10453;50.810;12.540;2023-08-12T13:44:09;30.20;73.20
20590;DHT22;10453;50.810;12.540;2023-08-12T13:48:27;29.80;78.80
20590;DHT22;10453;50.810;12.540;2023-08-12T13:52:46;29.90;75.10
20590;DHT22;10453;50.810;12.540;2023-08-12T13:57:07;30.30;73.20
20590;DHT22;10453;50.810;12.540;2023-08-12T14:01:25;30.80;74.40
20590;DHT22;10453;50.810;12.540;2023-08-12T14:05:42;33.20;69.50
20590;DHT22;10453;50.810;12.540;2023-08-12T14:10:01;33.70;68.70
20590;DHT22;10453;50.810;12.540;2023-08-12T14:14:18;34.50;69.30
20590;DHT22;10453;50.810;12.540;2023-08-12T14:18:36;35.30;69.60
20590;DHT22;10453;50.810;12.540;2023-08-12T14:22:53;35.50;60.30
20590;DHT22;10453;50.810;12.540;2023-08-12T14:27:15;36.00;64.80
20590;DHT22;10453;50.810;12.540;2023-08-12T14:31:34;33.30;66.40
20590;DHT22;10453;50.810;12.540;2023-08-12T14:35:53;32.60;65.00
20590;DHT22;10453;50.810;12.540;2023-08-12T14:40:11;32.50;62.60
20590;DHT22;10453;50.810;12.540;2023-08-12T14:44:29;31.70;64.40
20590;DHT22;10453;50.810;12.540;2023-08-12T14:48:52;31.30;68.80
20590;DHT22;10453;50.810;12.540;2023-08-12T14:53:10;31.00;69.10
20590;DHT22;10453;50.810;12.540;2023-08-12T14:57:28;30.80;72.40
20590;DHT22;10453;50.810;12.540;2023-08-12T15:01:45;30.30;74.60
20590;DHT22;10453;50.810;12.540;2023-08-12T15:06:03;29.70;74.10
20590;DHT22;10453;50.810;12.540;2023-08-12T15:10:23;29.50;75.10
20590;DHT22;10453;50.810;12.540;2023-08-12T15:14:40;29.30;75.60
20590;DHT22;10453;50.810;12.540;2023-08-12T15:18:57;29.10;82.10
20590;DHT22;10453;50.810;12.540;2023-08-12T15:23:14;28.80;88.80
20590;DHT22;10453;50.810;12.540;2023-08-12T15:27:32;28.40;86.30
20590;DHT22;10453;50.810;12.540;2023-08-12T15:31:50;28.10;91.60
20590;DHT22;10453;50.810;12.540;2023-08-12T15:36:07;24.60;99.90
20590;DHT22;10453;50.810;12.540;2023-08-12T15:40:25;22.80;99.90
20590;DHT22;10453;50.810;12.540;2023-08-12T15:44:42;21.80;99.90
20590;DHT22;10453;50.810;12.540;2023-08-12T15:49:00;21.30;99.90
20590;DHT22;10453;50.810;12.540;2023-08-12T15:53:17;21.00;99.90
20590;DHT22;10453;50.810;12.540;2023-08-12T15:57:35;20.90;99.90
20590;DHT22;10453;50.810;12.540;2023-08-12T16:01:52;20.80;99.90
20590;DHT22;10453;50.810;12.540;2023-08-12T16:06:09;20.70;99.90
20590;DHT22;10453;50.810;12.540;2023-08-12T16:10:30;20.80;99.90
20590;DHT22;10453;50.810;12.540;2023-08-12T16:14:47;20.60;99.90
20590;DHT22;10453;50.810;12.540;2023-08-12T16:19:05;20.60;99.90
20590;DHT22;10453;50.810;12.540;2023-08-12T16:23:23;20.40;99.90
20590;DHT22;10453;50.810;12.540;2023-08-12T16:27:41;20.40;99.90
20590;DHT22;10453;50.810;12.540;2023-08-12T16:31:58;20.50;99.90
20590;DHT22;10453;50.810;12.540;2023-08-12T16:36:15;20.60;99.90
20590;DHT22;10453;50.810;12.540;2023-08-12T16:40:33;20.40;99.90
20590;DHT22;10453;50.810;12.540;2023-08-12T16:44:50;20.60;99.90
20590;DHT22;10453;50.810;12.540;2023-08-12T16:49:09;20.60;99.90
20590;DHT22;10453;50.810;12.540;2023-08-12T16:53:26;20.60;99.90
20590;DHT22;10453;50.810;12.540;2023-08-12T16:57:43;20.30;99.90
20590;DHT22;10453;50.810;12.540;2023-08-12T17:02:01;20.20;99.90
20590;DHT22;10453;50.810;12.540;2023-08-12T17:06:18;20.20;99.90
20590;DHT22;10453;50.810;12.540;2023-08-12T17:10:39;20.40;99.90
20590;DHT22;10453;50.810;12.540;2023-08-12T17:14:58;20.40;99.90
20590;DHT22;10453;50.810;12.540;2023-08-12T17:19:15;20.40;99.90
20590;DHT22;10453;50.810;12.540;2023-08-12T17:23:33;20.50;99.90
20590;DHT22;10453;50.810;12.540;2023-08-12T17:27:51;20.50;99.90
20590;DHT22;10453;50.810;12.540;2023-08-12T17:32:08;20.50;99.90
20590;DHT22;10453;50.810;12.540;2023-08-12T17:36:26;20.60;99.90
20590;DHT22;10453;50.810;12.540;2023-08-12T17:40:43;20.60;99.90
20590;DHT22;10453;50.810;12.540;2023-08-12T17:45:00;20.50;99.90
20590;DHT22;10453;50.810;12.540;2023-08-12T17:49:18;20.30;99.90
20590;DHT22;10453;50.810;12.540;2023-08-12T17:53:35;20.30;99.90
20590;DHT22;10453;50.810;12.540;2023-08-12T17:57:53;20.30;99.90
20590;DHT22;10453;50.810;12.540;2023-08-12T18:02:10;20.30;99.90
20590;DHT22;10453;50.810;12.540;2023-08-12T18:06:28;20.20;99.90
20590;DHT22;10453;50.810;12.540;2023-08-12T18:10:45;20.10;99.90
20590;DHT22;10453;50.810;12.540;2023-08-12T18:15:03;20.00;99.90
20590;DHT22;10453;50.810;12.540;2023-08-12T18:19:24;20.00;99.90
20590;DHT22;10453;50.810;12.540;2023-08-12T18:23:41;19.90;99.90
20590;DHT22;10453;50.810;12.540;2023-08-12T18:27:58;19.90;99.90
20590;DHT22;10453;50.810;12.540;2023-08-12T18:32:16;19.90;99.90
20590;DHT22;10453;50.810;12.540;2023-08-12T18:36:33;19.90;99.90
20590;DHT22;10453;50.810;12.540;2023-08-12T18:40:50;19.90;99.90
20590;DHT22;10453;50.810;12.540;2023-08-12T18:45:08;19.90;99.90
20590;DHT22;10453;50.810;12.540;2023-08-12T18:49:27;19.90;99.90
20590;DHT22;10453;50.810;12.540;2023-08-12T18:53:45;19.90;99.90
20590;DHT22;10453;50.810;12.540;2023-08-12T18:58:03;19.80;99.90
20590;DHT22;10453;50.810;12.540;2023-08-12T19:02:20;19.90;99.90
20590;DHT22;10453;50.810;12.540;2023-08-12T19:06:38;19.80;99.90
20590;DHT22;10453;50.810;12.540;2023-08-12T19:10:56;19.90;99.90
20590;DHT22;10453;50.810;12.540;2023-08-12T19:15:14;19.80;99.90
20590;DHT22;10453;50.810;12.540;2023-08-12T19:19:31;19.70;99.90
20590;DHT22;10453;50.810;12.540;2023-08-12T19:23:49;19.70;99.90
20590;DHT22;10453;50.810;12.540;2023-08-12T19:28:08;19.70;99.90
20590;DHT22;10453;50.810;12.540;2023-08-12T19:32:26;19.60;99.90
20590;DHT22;10453;50.810;12.540;2023-08-12T19:36:44;19.60;99.90
20590;DHT22;10453;50.810;12.540;2023-08-12T19:41:01;19.60;99.90
20590;DHT22;10453;50.810;12.540;2023-08-12T19:45:21;19.50;99.90
20590;DHT22;10453;50.810;12.540;2023-08-12T19:49:38;19.50;99.90
20590;DHT22;10453;50.810;12.540;2023-08-12T19:53:56;19.50;99.90
20590;DHT22;10453;50.810;12.540;2023-08-12T19:58:14;19.50;99.90
20590;DHT22;10453;50.810;12.540;2023-08-12T20:02:31;19.50;99.90
20590;DHT22;10453;50.810;12.540;2023-08-12T20:06:56;19.60;99.90
20590;DHT22;10453;50.810;12.540;2023-08-12T20:11:13;19.50;99.90
20590;DHT22;10453;50.810;12.540;2023-08-12T20:15:31;19.70;99.90
20590;DHT22;10453;50.810;12.540;2023-08-12T20:19:48;19.70;99.90
20590;DHT22;10453;50.810;12.540;2023-08-12T20:24:06;19.70;99.90
20590;DHT22;10453;50.810;12.540;2023-08-12T20:28:24;19.60;99.90
20590;DHT22;10453;50.810;12.540;2023-08-12T20:32:41;19.50;99.90
20590;DHT22;10453;50.810;12.540;2023-08-12T20:36:59;19.40;99.90
20590;DHT22;10453;50.810;12.540;2023-08-12T20:41:16;19.40;99.90
20590;DHT22;10453;50.810;12.540;2023-08-12T20:45:34;19.30;99.90
20590;DHT22;10453;50.810;12.540;2023-08-12T20:49:51;19.30;99.90
20590;DHT22;10453;50.810;12.540;2023-08-12T20:54:09;19.20;99.90
20590;DHT22;10453;50.810;12.540;2023-08-12T20:58:27;19.10;99.90
20590;DHT22;10453;50.810;12.540;2023-08-12T21:02:45;19.00;99.90
20590;DHT22;10453;50.810;12.540;2023-08-12T21:07:03;18.90;99.90
20590;DHT22;10453;50.810;12.540;2023-08-12T21:11:21;18.90;99.90
20590;DHT22;10453;50.810;12.540;2023-08-12T21:15:39;18.80;99.90
20590;DHT22;10453;50.810;12.540;2023-08-12T21:19:57;18.90;99.90
20590;DHT22;10453;50.810;12.540;2023-08-12T21:24:15;18.80;99.90
20590;DHT22;10453;50.810;12.540;2023-08-12T21:28:32;18.70;99.90
20590;DHT22;10453;50.810;12.540;2023-08-12T21:32:50;18.70;99.90
20590;DHT22;10453;50.810;12.540;2023-08-12T21:37:07;18.80;99.90
20590;DHT22;10453;50.810;12.540;2023-08-12T21:41:25;18.80;99.90
20590;DHT22;10453;50.810;12.540;2023-08-12T21:45:42;18.80;99.90
20590;DHT22;10453;50.810;12.540;2023-08-12T21:49:59;18.90;99.90
20590;DHT22;10453;50.810;12.540;2023-08-12T21:54:17;18.90;99.90
20590;DHT22;10453;50.810;12.540;2023-08-12T21:58:34;18.80;99.90
20590;DHT22;10453;50.810;12.540;2023-08-12T22:02:52;18.80;99.90
20590;DHT22;10453;50.810;12.540;2023-08-12T22:07:09;18.80;99.90
20590;DHT22;10453;50.810;12.540;2023-08-12T22:11:27;18.90;99.90
20590;DHT22;10453;50.810;12.540;2023-08-12T22:15:44;18.90;99.90
20590;DHT22;10453;50.810;12.540;2023-08-12T22:20:03;19.00;99.90
20590;DHT22;10453;50.810;12.540;2023-08-12T22:24:23;19.20;99.90
20590;DHT22;10453;50.810;12.540;2023-08-12T22:28:40;19.20;99.90
20590;DHT22;10453;50.810;12.540;2023-08-12T22:32:58;19.20;99.90
20590;DHT22;10453;50.810;12.540;2023-08-12T22:37:16;19.20;99.90
20590;DHT22;10453;50.810;12.540;2023-08-12T22:41:34;19.20;99.90
20590;DHT22;10453;50.810;12.540;2023-08-12T22:45:51;19.20;99.90
20590;DHT22;10453;50.810;12.540;2023-08-12T22:50:09;19.20;99.90
20590;DHT22;10453;50.810;12.540;2023-08-12T22:54:29;19.20;99.90
20590;DHT22;10453;50.810;12.540;2023-08-12T22:58:47;19.10;99.90
20590;DHT22;10453;50.810;12.540;2023-08-12T23:03:04;19.20;99.90
20590;DHT22;10453;50.810;12.540;2023-08-12T23:07:21;19.20;99.90
20590;DHT22;10453;50.810;12.540;2023-08-12T23:11:39;19.40;99.90
20590;DHT22;10453;50.810;12.540;2023-08-12T23:15:56;19.30;99.90
20590;DHT22;10453;50.810;12.540;2023-08-12T23:20:14;19.30;99.90
20590;DHT22;10453;50.810;12.540;2023-08-12T23:24:31;19.20;99.90
20590;DHT22;10453;50.810;12.540;2023-08-12T23:28:49;19.10;99.90
20590;DHT22;10453;50.810;12.540;2023-08-12T23:33:07;19.20;99.90
20590;DHT22;10453;50.810;12.540;2023-08-12T23:37:24;19.20;99.90
20590;DHT22;10453;50.810;12.540;2023-08-12T23:41:41;19.20;99.90
20590;DHT22;10453;50.810;12.540;2023-08-12T23:45:59;19.20;99.90
20590;DHT22;10453;50.810;12.540;2023-08-12T23:50:20;19.20;99.90
20590;DHT22;10453;50.810;12.540;2023-08-12T23:54:37;19.20;99.90
20590;DHT22;10453;50.810;12.540;2023-08-12T23:58:54;19.20;99.90
